sensor_id;sensor_type;location;lat;lon;timestamp;temperature;humidity
4293;DHT22;2160;51.172;6.808;2023-08-31T04:01:31;14.70;99.90
4293;DHT22;2160;51.172;6.808;2023-08-31T04:03:59;14.70;99.90
4293;DHT22;2160;51.172;6.808;2023-08-31T04:06:26;14.90;99.90
4293;DHT22;2160;51.172;6.808;2023-08-31T04:08:54;14.90;99.90
4293;DHT22;2160;51.172;6.808;2023-08-31T04:11:21;14.90;99.90
4293;DHT22;2160;51.172;6.808;2023-08-31T04:13:48;15.00;99.90
4293;DHT22;2160;51.172;6.808;2023-08-31T04:16:15;15.00;99.90
4293;DHT22;2160;51.172;6.808;2023-08-31T04:18:44;15.00;99.90
4293;DHT22;2160;51.172;6.808;2023-08-31T04:21:13;14.90;99.90
4293;DHT22;2160;51.172;6.808;2023-08-31T04:23:40;14.70;99.90
4293;DHT22;2160;51.172;6.808;2023-08-31T04:26:10;14.60;99.90
4293;DHT22;2160;51.172;6.808;2023-08-31T04:28:38;14.50;99.90
4293;DHT22;2160;51.172;6.808;2023-08-31T04:31:06;14.60;99.90
4293;DHT22;2160;51.172;6.808;2023-08-31T04:33:33;14.60;99.90
4293;DHT22;2160;51.172;6.808;2023-08-31T04:36:02;14.50;99.90
4293;DHT22;2160;51.172;6.808;2023-08-31T04:38:30;14.50;99.90
4293;DHT22;2160;51.172;6.808;2023-08-31T04:40:58;14.30;99.90
4293;DHT22;2160;51.172;6.808;2023-08-31T04:43:25;14.50;99.90
4293;DHT22;2160;51.172;6.808;2023-08-31T04:45:52;14.50;99.90
4293;DHT22;2160;51.172;6.808;2023-08-31T04:48:19;14.60;99.90
4293;DHT22;2160;51.172;6.808;2023-08-31T04:50:46;14.80;99.90
4293;DHT22;2160;51.172;6.808;2023-08-31T04:53:15;14.60;99.90
4293;DHT22;2160;51.172;6.808;2023-08-31T04:55:41;14.50;99.90
4293;DHT22;2160;51.172;6.808;2023-08-31T04:58:08;14.50;99.90
4293;DHT22;2160;51.172;6.808;2023-08-31T05:00:35;14.50;99.90
4293;DHT22;2160;51.172;6.808;2023-08-31T05:03:03;14.50;99.90
4293;DHT22;2160;51.172;6.808;2023-08-31T05:05:30;14.60;99.90
4293;DHT22;2160;51.172;6.808;2023-08-31T05:07:57;14.90;99.90
4293;DHT22;2160;51.172;6.808;2023-08-31T05:10:25;14.50;99.90
4293;DHT22;2160;51.172;6.808;2023-08-31T05:12:52;14.40;99.90
4293;DHT22;2160;51.172;6.808;2023-08-31T05:15:19;14.70;99.90
4293;DHT22;2160;51.172;6.808;2023-08-31T05:17:46;14.70;99.90
4293;DHT22;2160;51.172;6.808;2023-08-31T05:20:14;14.70;99.90
4293;DHT22;2160;51.172;6.808;2023-08-31T05:22:41;14.70;99.90
4293;DHT22;2160;51.172;6.808;2023-08-31T05:25:08;14.60;99.90
4293;DHT22;2160;51.172;6.808;2023-08-31T05:27:36;14.60;99.90
4293;DHT22;2160;51.172;6.808;2023-08-31T05:30:04;14.70;99.90
4293;DHT22;2160;51.172;6.808;2023-08-31T05:32:31;14.70;99.90
4293;DHT22;2160;51.172;6.808;2023-08-31T05:34:58;14.60;99.90
4293;DHT22;2160;51.172;6.808;2023-08-31T05:37:25;14.80;99.90
4293;DHT22;2160;51.172;6.808;2023-08-31T05:39:52;14.60;99.90
4293;DHT22;2160;51.172;6.808;2023-08-31T05:42:19;14.60;99.90
4293;DHT22;2160;51.172;6.808;2023-08-31T05:44:47;14.70;99.90
4293;DHT22;2160;51.172;6.808;2023-08-31T05:47:14;14.80;99.90
4293;DHT22;2160;51.172;6.808;2023-08-31T05:49:41;14.90;99.90
4293;DHT22;2160;51.172;6.808;2023-08-31T05:52:08;15.10;99.90
4293;DHT22;2160;51.172;6.808;2023-08-31T05:54:35;15.00;99.90
4293;DHT22;2160;51.172;6.808;2023-08-31T05:57:03;14.90;99.90
4293;DHT22;2160;51.172;6.808;2023-08-31T05:59:31;15.10;99.90
4293;DHT22;2160;51.172;6.808;2023-08-31T06:01:59;15.40;99.90
4293;DHT22;2160;51.172;6.808;2023-08-31T06:04:26;15.10;99.90
4293;DHT22;2160;51.172;6.808;2023-08-31T06:06:53;14.90;99.90
4293;DHT22;2160;51.172;6.808;2023-08-31T06:09:20;14.70;99.90
4293;DHT22;2160;51.172;6.808;2023-08-31T06:11:47;14.80;99.90
4293;DHT22;2160;51.172;6.808;2023-08-31T06:14:14;15.00;99.90
4293;DHT22;2160;51.172;6.808;2023-08-31T06:16:41;15.20;99.90
4293;DHT22;2160;51.172;6.808;2023-08-31T06:19:09;15.40;99.90
4293;DHT22;2160;51.172;6.808;2023-08-31T06:21:36;15.50;99.90
4293;DHT22;2160;51.172;6.808;2023-08-31T06:24:03;15.70;99.90
4293;DHT22;2160;51.172;6.808;2023-08-31T06:26:32;15.30;99.90
4293;DHT22;2160;51.172;6.808;2023-08-31T06:28:59;15.70;99.90
4293;DHT22;2160;51.172;6.808;2023-08-31T06:31:26;16.10;99.90
4293;DHT22;2160;51.172;6.808;2023-08-31T06:33:53;15.90;99.90
4293;DHT22;2160;51.172;6.808;2023-08-31T06:36:21;15.70;99.90
4293;DHT22;2160;51.172;6.808;2023-08-31T06:38:48;15.80;99.90
4293;DHT22;2160;51.172;6.808;2023-08-31T06:41:15;15.70;99.90
4293;DHT22;2160;51.172;6.808;2023-08-31T06:43:42;15.90;99.90
4293;DHT22;2160;51.172;6.808;2023-08-31T06:46:09;16.00;99.90
4293;DHT22;2160;51.172;6.808;2023-08-31T06:48:36;15.90;99.90
4293;DHT22;2160;51.172;6.808;2023-08-31T06:51:02;16.30;99.90
4293;DHT22;2160;51.172;6.808;2023-08-31T06:53:31;15.90;99.90
4293;DHT22;2160;51.172;6.808;2023-08-31T06:55:58;16.20;99.90
4293;DHT22;2160;51.172;6.808;2023-08-31T06:58:25;16.40;99.90
4293;DHT22;2160;51.172;6.808;2023-08-31T07:00:52;16.50;99.90
4293;DHT22;2160;51.172;6.808;2023-08-31T07:03:19;16.50;99.90
4293;DHT22;2160;51.172;6.808;2023-08-31T07:05:45;16.80;99.90
4293;DHT22;2160;51.172;6.808;2023-08-31T07:08:12;17.40;99.90
4293;DHT22;2160;51.172;6.808;2023-08-31T07:10:41;17.80;99.90
4293;DHT22;2160;51.172;6.808;2023-08-31T07:13:08;17.90;99.90
4293;DHT22;2160;51.172;6.808;2023-08-31T07:15:35;17.90;99.90
4293;DHT22;2160;51.172;6.808;2023-08-31T07:18:03;17.90;99.90
4293;DHT22;2160;51.172;6.808;2023-08-31T07:20:30;17.40;99.90
4293;DHT22;2160;51.172;6.808;2023-08-31T07:22:57;17.10;99.90
4293;DHT22;2160;51.172;6.808;2023-08-31T07:25:25;17.30;99.90
4293;DHT22;2160;51.172;6.808;2023-08-31T07:27:54;17.10;99.90
4293;DHT22;2160;51.172;6.808;2023-08-31T07:30:21;17.00;99.90
4293;DHT22;2160;51.172;6.808;2023-08-31T07:32:48;17.20;99.90
4293;DHT22;2160;51.172;6.808;2023-08-31T07:35:15;17.40;99.90
4293;DHT22;2160;51.172;6.808;2023-08-31T07:37:42;17.30;99.90
4293;DHT22;2160;51.172;6.808;2023-08-31T07:40:09;17.20;99.90
4293;DHT22;2160;51.172;6.808;2023-08-31T07:42:36;17.20;99.90
4293;DHT22;2160;51.172;6.808;2023-08-31T07:45:06;17.20;99.90
4293;DHT22;2160;51.172;6.808;2023-08-31T07:47:33;17.30;99.90
4293;DHT22;2160;51.172;6.808;2023-08-31T07:50:00;17.40;99.90
4293;DHT22;2160;51.172;6.808;2023-08-31T07:52:27;17.70;99.90
4293;DHT22;2160;51.172;6.808;2023-08-31T07:54:55;17.90;99.90
4293;DHT22;2160;51.172;6.808;2023-08-31T07:57:22;17.80;99.90
4293;DHT22;2160;51.172;6.808;2023-08-31T07:59:49;17.60;99.90
4293;DHT22;2160;51.172;6.808;2023-08-31T08:02:17;17.90;99.90
4293;DHT22;2160;51.172;6.808;2023-08-31T08:04:45;18.00;99.90
4293;DHT22;2160;51.172;6.808;2023-08-31T08:07:12;18.00;99.90
4293;DHT22;2160;51.172;6.808;2023-08-31T08:09:39;17.90;99.90
4293;DHT22;2160;51.172;6.808;2023-08-31T08:12:07;17.90;99.90
4293;DHT22;2160;51.172;6.808;2023-08-31T08:14:34;17.90;99.90
4293;DHT22;2160;51.172;6.808;2023-08-31T08:17:01;18.00;99.90
4293;DHT22;2160;51.172;6.808;2023-08-31T08:19:30;17.90;99.90
4293;DHT22;2160;51.172;6.808;2023-08-31T08:21:57;18.00;99.90
4293;DHT22;2160;51.172;6.808;2023-08-31T08:24:24;18.20;99.90
4293;DHT22;2160;51.172;6.808;2023-08-31T08:26:51;18.30;99.90
4293;DHT22;2160;51.172;6.808;2023-08-31T08:29:17;18.30;99.90
4293;DHT22;2160;51.172;6.808;2023-08-31T08:31:44;18.30;99.90
4293;DHT22;2160;51.172;6.808;2023-08-31T08:34:11;18.50;99.90
4293;DHT22;2160;51.172;6.808;2023-08-31T08:36:39;18.70;99.90
4293;DHT22;2160;51.172;6.808;2023-08-31T08:39:06;18.80;99.90
4293;DHT22;2160;51.172;6.808;2023-08-31T08:41:35;18.90;99.90
4293;DHT22;2160;51.172;6.808;2023-08-31T08:44:04;18.50;99.90
4293;DHT22;2160;51.172;6.808;2023-08-31T08:46:33;18.40;99.90
4293;DHT22;2160;51.172;6.808;2023-08-31T08:49:00;18.40;99.90
4293;DHT22;2160;51.172;6.808;2023-08-31T08:51:29;18.40;99.90
4293;DHT22;2160;51.172;6.808;2023-08-31T08:53:59;18.40;99.90
4293;DHT22;2160;51.172;6.808;2023-08-31T08:56:26;18.70;99.90
4293;DHT22;2160;51.172;6.808;2023-08-31T08:58:53;18.90;99.90
4293;DHT22;2160;51.172;6.808;2023-08-31T09:01:20;19.20;99.90
4293;DHT22;2160;51.172;6.808;2023-08-31T09:03:48;19.20;99.90
4293;DHT22;2160;51.172;6.808;2023-08-31T09:06:16;19.00;99.90
4293;DHT22;2160;51.172;6.808;2023-08-31T09:08:43;19.10;99.90
4293;DHT22;2160;51.172;6.808;2023-08-31T09:11:19;19.10;99.90
4293;DHT22;2160;51.172;6.808;2023-08-31T09:13:48;19.20;99.90
4293;DHT22;2160;51.172;6.808;2023-08-31T09:16:24;19.20;99.90
4293;DHT22;2160;51.172;6.808;2023-08-31T09:18:51;19.30;99.90
4293;DHT22;2160;51.172;6.808;2023-08-31T09:21:18;19.50;99.90
4293;DHT22;2160;51.172;6.808;2023-08-31T09:23:55;19.60;99.90
4293;DHT22;2160;51.172;6.808;2023-08-31T09:26:24;19.60;99.90
4293;DHT22;2160;51.172;6.808;2023-08-31T09:28:51;19.20;99.90
4293;DHT22;2160;51.172;6.808;2023-08-31T09:31:18;19.20;99.90
4293;DHT22;2160;51.172;6.808;2023-08-31T09:33:50;19.50;99.90
4293;DHT22;2160;51.172;6.808;2023-08-31T09:36:17;19.80;99.90
4293;DHT22;2160;51.172;6.808;2023-08-31T09:38:45;20.00;99.90
4293;DHT22;2160;51.172;6.808;2023-08-31T09:41:12;19.90;99.90
4293;DHT22;2160;51.172;6.808;2023-08-31T09:43:42;20.00;99.90
4293;DHT22;2160;51.172;6.808;2023-08-31T09:46:09;20.10;99.90
4293;DHT22;2160;51.172;6.808;2023-08-31T09:48:37;20.20;99.90
4293;DHT22;2160;51.172;6.808;2023-08-31T09:51:06;20.00;99.90
4293;DHT22;2160;51.172;6.808;2023-08-31T09:53:36;19.90;99.90
4293;DHT22;2160;51.172;6.808;2023-08-31T09:56:04;19.70;99.90
4293;DHT22;2160;51.172;6.808;2023-08-31T09:58:33;19.70;99.90
4293;DHT22;2160;51.172;6.808;2023-08-31T10:01:01;20.00;99.90
4293;DHT22;2160;51.172;6.808;2023-08-31T10:03:28;20.10;99.90
4293;DHT22;2160;51.172;6.808;2023-08-31T10:05:56;20.50;99.90
4293;DHT22;2160;51.172;6.808;2023-08-31T10:08:23;21.00;99.90
4293;DHT22;2160;51.172;6.808;2023-08-31T10:10:52;21.20;99.90
4293;DHT22;2160;51.172;6.808;2023-08-31T10:13:20;21.30;99.90
4293;DHT22;2160;51.172;6.808;2023-08-31T10:15:49;21.30;99.90
4293;DHT22;2160;51.172;6.808;2023-08-31T10:18:17;21.50;99.90
4293;DHT22;2160;51.172;6.808;2023-08-31T10:20:44;21.40;99.90
4293;DHT22;2160;51.172;6.808;2023-08-31T10:23:12;21.50;99.90
4293;DHT22;2160;51.172;6.808;2023-08-31T10:26:04;21.60;99.90
4293;DHT22;2160;51.172;6.808;2023-08-31T10:28:39;21.50;99.90
4293;DHT22;2160;51.172;6.808;2023-08-31T10:31:08;21.50;99.90
4293;DHT22;2160;51.172;6.808;2023-08-31T10:33:39;21.20;99.90
4293;DHT22;2160;51.172;6.808;2023-08-31T10:36:13;21.10;99.90
4293;DHT22;2160;51.172;6.808;2023-08-31T10:38:42;21.30;99.90
4293;DHT22;2160;51.172;6.808;2023-08-31T10:41:21;21.60;99.90
4293;DHT22;2160;51.172;6.808;2023-08-31T10:43:50;21.70;99.90
4293;DHT22;2160;51.172;6.808;2023-08-31T10:46:29;21.90;99.90
4293;DHT22;2160;51.172;6.808;2023-08-31T10:48:58;21.80;99.90
4293;DHT22;2160;51.172;6.808;2023-08-31T10:51:27;21.60;99.90
4293;DHT22;2160;51.172;6.808;2023-08-31T10:54:05;21.30;99.90
4293;DHT22;2160;51.172;6.808;2023-08-31T10:56:32;21.20;99.90
4293;DHT22;2160;51.172;6.808;2023-08-31T10:59:01;21.10;99.90
4293;DHT22;2160;51.172;6.808;2023-08-31T11:01:56;21.20;99.90
4293;DHT22;2160;51.172;6.808;2023-08-31T11:04:26;21.30;99.90
4293;DHT22;2160;51.172;6.808;2023-08-31T11:07:13;21.50;99.90
4293;DHT22;2160;51.172;6.808;2023-08-31T11:09:41;22.00;99.90
4293;DHT22;2160;51.172;6.808;2023-08-31T11:12:09;22.40;99.90
4293;DHT22;2160;51.172;6.808;2023-08-31T11:14:36;22.80;99.90
4293;DHT22;2160;51.172;6.808;2023-08-31T11:17:04;22.80;99.90
4293;DHT22;2160;51.172;6.808;2023-08-31T11:19:33;22.30;99.90
4293;DHT22;2160;51.172;6.808;2023-08-31T11:22:01;22.40;99.90
4293;DHT22;2160;51.172;6.808;2023-08-31T11:24:29;22.40;99.90
4293;DHT22;2160;51.172;6.808;2023-08-31T11:26:56;22.10;99.90
4293;DHT22;2160;51.172;6.808;2023-08-31T11:29:23;21.80;99.90
4293;DHT22;2160;51.172;6.808;2023-08-31T11:31:50;21.70;99.90
4293;DHT22;2160;51.172;6.808;2023-08-31T11:34:18;21.30;99.90
4293;DHT22;2160;51.172;6.808;2023-08-31T11:36:47;20.70;99.90
4293;DHT22;2160;51.172;6.808;2023-08-31T11:39:15;20.60;99.90
4293;DHT22;2160;51.172;6.808;2023-08-31T11:41:44;20.80;99.90
4293;DHT22;2160;51.172;6.808;2023-08-31T11:44:12;20.90;99.90
4293;DHT22;2160;51.172;6.808;2023-08-31T11:46:42;20.90;99.90
4293;DHT22;2160;51.172;6.808;2023-08-31T11:49:10;20.90;99.90
4293;DHT22;2160;51.172;6.808;2023-08-31T11:51:38;21.30;99.90
4293;DHT22;2160;51.172;6.808;2023-08-31T11:54:07;21.70;99.90
4293;DHT22;2160;51.172;6.808;2023-08-31T11:56:40;22.00;99.90
4293;DHT22;2160;51.172;6.808;2023-08-31T11:59:09;22.50;99.90
4293;DHT22;2160;51.172;6.808;2023-08-31T12:01:38;22.90;99.90
4293;DHT22;2160;51.172;6.808;2023-08-31T12:04:13;23.10;99.90
4293;DHT22;2160;51.172;6.808;2023-08-31T12:06:46;23.20;99.90
4293;DHT22;2160;51.172;6.808;2023-08-31T12:09:15;22.90;99.90
4293;DHT22;2160;51.172;6.808;2023-08-31T12:11:48;22.80;99.90
4293;DHT22;2160;51.172;6.808;2023-08-31T12:14:19;22.70;99.90
4293;DHT22;2160;51.172;6.808;2023-08-31T12:16:47;22.50;99.90
4293;DHT22;2160;51.172;6.808;2023-08-31T12:19:14;22.40;99.90
4293;DHT22;2160;51.172;6.808;2023-08-31T12:21:42;22.40;99.90
4293;DHT22;2160;51.172;6.808;2023-08-31T12:24:10;22.70;99.90
4293;DHT22;2160;51.172;6.808;2023-08-31T12:26:40;22.90;99.90
4293;DHT22;2160;51.172;6.808;2023-08-31T12:29:07;23.50;99.90
4293;DHT22;2160;51.172;6.808;2023-08-31T12:31:34;23.60;99.90
4293;DHT22;2160;51.172;6.808;2023-08-31T12:34:01;23.90;99.90
4293;DHT22;2160;51.172;6.808;2023-08-31T12:36:31;24.30;99.90
4293;DHT22;2160;51.172;6.808;2023-08-31T12:38:58;24.60;99.90
4293;DHT22;2160;51.172;6.808;2023-08-31T12:41:27;24.90;99.90
4293;DHT22;2160;51.172;6.808;2023-08-31T12:43:56;24.70;99.50
4293;DHT22;2160;51.172;6.808;2023-08-31T12:46:23;24.40;98.70
4293;DHT22;2160;51.172;6.808;2023-08-31T12:48:50;24.50;99.90
4293;DHT22;2160;51.172;6.808;2023-08-31T12:51:18;23.90;99.10
4293;DHT22;2160;51.172;6.808;2023-08-31T12:53:45;23.50;99.90
4293;DHT22;2160;51.172;6.808;2023-08-31T12:56:12;23.30;99.90
4293;DHT22;2160;51.172;6.808;2023-08-31T12:58:40;23.30;99.90
4293;DHT22;2160;51.172;6.808;2023-08-31T13:01:09;23.00;99.90
4293;DHT22;2160;51.172;6.808;2023-08-31T13:03:36;22.90;99.90
4293;DHT22;2160;51.172;6.808;2023-08-31T13:06:03;23.60;99.90
4293;DHT22;2160;51.172;6.808;2023-08-31T13:08:30;24.20;99.90
4293;DHT22;2160;51.172;6.808;2023-08-31T13:10:57;24.10;99.10
4293;DHT22;2160;51.172;6.808;2023-08-31T13:13:24;24.40;99.90
4293;DHT22;2160;51.172;6.808;2023-08-31T13:15:50;24.70;99.30
4293;DHT22;2160;51.172;6.808;2023-08-31T13:18:19;25.60;98.90
4293;DHT22;2160;51.172;6.808;2023-08-31T13:20:49;26.50;96.80
4293;DHT22;2160;51.172;6.808;2023-08-31T13:23:17;27.20;94.90
4293;DHT22;2160;51.172;6.808;2023-08-31T13:25:43;27.60;92.30
4293;DHT22;2160;51.172;6.808;2023-08-31T13:28:11;28.40;88.80
4293;DHT22;2160;51.172;6.808;2023-08-31T13:30:38;28.20;87.10
4293;DHT22;2160;51.172;6.808;2023-08-31T13:33:06;27.70;82.70
4293;DHT22;2160;51.172;6.808;2023-08-31T13:35:34;28.00;85.50
4293;DHT22;2160;51.172;6.808;2023-08-31T13:38:01;28.80;81.10
4293;DHT22;2160;51.172;6.808;2023-08-31T13:40:28;29.00;78.40
4293;DHT22;2160;51.172;6.808;2023-08-31T13:42:57;30.00;75.90
4293;DHT22;2160;51.172;6.808;2023-08-31T13:45:27;29.10;66.40
4293;DHT22;2160;51.172;6.808;2023-08-31T13:47:54;28.30;70.90
4293;DHT22;2160;51.172;6.808;2023-08-31T13:50:21;27.00;76.00
4293;DHT22;2160;51.172;6.808;2023-08-31T13:52:49;27.60;76.10
4293;DHT22;2160;51.172;6.808;2023-08-31T13:55:16;29.40;75.10
4293;DHT22;2160;51.172;6.808;2023-08-31T13:57:43;30.10;72.60
4293;DHT22;2160;51.172;6.808;2023-08-31T14:00:11;30.80;72.10
4293;DHT22;2160;51.172;6.808;2023-08-31T14:02:39;29.80;65.00
4293;DHT22;2160;51.172;6.808;2023-08-31T14:05:07;28.40;73.40
4293;DHT22;2160;51.172;6.808;2023-08-31T14:07:34;29.20;74.20
4293;DHT22;2160;51.172;6.808;2023-08-31T14:10:04;30.70;70.30
4293;DHT22;2160;51.172;6.808;2023-08-31T14:12:32;30.00;62.90
4293;DHT22;2160;51.172;6.808;2023-08-31T14:14:59;29.40;68.40
4293;DHT22;2160;51.172;6.808;2023-08-31T14:17:29;28.20;69.50
4293;DHT22;2160;51.172;6.808;2023-08-31T14:19:58;27.80;70.50
4293;DHT22;2160;51.172;6.808;2023-08-31T14:22:25;28.40;69.00
4293;DHT22;2160;51.172;6.808;2023-08-31T14:24:52;28.60;68.10
4293;DHT22;2160;51.172;6.808;2023-08-31T14:27:21;27.50;66.10
4293;DHT22;2160;51.172;6.808;2023-08-31T14:29:48;26.50;68.20
4293;DHT22;2160;51.172;6.808;2023-08-31T14:32:15;25.80;68.20
4293;DHT22;2160;51.172;6.808;2023-08-31T14:34:42;25.20;72.00
4293;DHT22;2160;51.172;6.808;2023-08-31T14:37:09;25.80;75.80
4293;DHT22;2160;51.172;6.808;2023-08-31T14:39:36;27.40;72.50
4293;DHT22;2160;51.172;6.808;2023-08-31T14:42:03;29.10;70.20
4293;DHT22;2160;51.172;6.808;2023-08-31T14:44:32;28.80;61.70
4293;DHT22;2160;51.172;6.808;2023-08-31T14:46:59;27.60;63.20
4293;DHT22;2160;51.172;6.808;2023-08-31T14:49:26;26.50;63.10
4293;DHT22;2160;51.172;6.808;2023-08-31T14:51:53;25.60;65.40
4293;DHT22;2160;51.172;6.808;2023-08-31T14:54:20;24.90;69.30
4293;DHT22;2160;51.172;6.808;2023-08-31T14:56:48;24.30;74.60
4293;DHT22;2160;51.172;6.808;2023-08-31T14:59:15;24.00;77.90
4293;DHT22;2160;51.172;6.808;2023-08-31T15:01:43;23.90;78.90
4293;DHT22;2160;51.172;6.808;2023-08-31T15:04:11;23.70;80.90
4293;DHT22;2160;51.172;6.808;2023-08-31T15:06:38;23.40;78.70
4293;DHT22;2160;51.172;6.808;2023-08-31T15:09:05;23.80;81.60
4293;DHT22;2160;51.172;6.808;2023-08-31T15:11:32;24.40;81.20
4293;DHT22;2160;51.172;6.808;2023-08-31T15:13:59;24.90;80.80
4293;DHT22;2160;51.172;6.808;2023-08-31T15:16:27;25.90;79.10
4293;DHT22;2160;51.172;6.808;2023-08-31T15:18:55;25.90;77.90
4293;DHT22;2160;51.172;6.808;2023-08-31T15:21:22;25.40;78.10
4293;DHT22;2160;51.172;6.808;2023-08-31T15:23:49;24.70;79.70
4293;DHT22;2160;51.172;6.808;2023-08-31T15:26:16;23.80;80.40
4293;DHT22;2160;51.172;6.808;2023-08-31T15:28:43;23.70;82.00
4293;DHT22;2160;51.172;6.808;2023-08-31T15:31:12;23.70;85.40
4293;DHT22;2160;51.172;6.808;2023-08-31T15:33:38;23.60;83.40
4293;DHT22;2160;51.172;6.808;2023-08-31T15:36:08;23.70;84.50
4293;DHT22;2160;51.172;6.808;2023-08-31T15:38:36;23.70;84.80
4293;DHT22;2160;51.172;6.808;2023-08-31T15:41:05;23.60;84.90
4293;DHT22;2160;51.172;6.808;2023-08-31T15:43:33;23.60;84.70
4293;DHT22;2160;51.172;6.808;2023-08-31T15:46:02;23.60;86.60
4293;DHT22;2160;51.172;6.808;2023-08-31T15:48:29;23.30;84.00
4293;DHT22;2160;51.172;6.808;2023-08-31T15:50:57;23.70;86.70
4293;DHT22;2160;51.172;6.808;2023-08-31T15:53:26;23.60;84.40
4293;DHT22;2160;51.172;6.808;2023-08-31T15:55:54;23.20;83.90
4293;DHT22;2160;51.172;6.808;2023-08-31T15:58:21;23.50;85.30
4293;DHT22;2160;51.172;6.808;2023-08-31T16:00:48;23.60;85.90
4293;DHT22;2160;51.172;6.808;2023-08-31T16:03:15;23.40;90.40
4293;DHT22;2160;51.172;6.808;2023-08-31T16:05:42;23.50;91.70
4293;DHT22;2160;51.172;6.808;2023-08-31T16:08:08;23.30;92.30
4293;DHT22;2160;51.172;6.808;2023-08-31T16:10:37;23.30;93.50
4293;DHT22;2160;51.172;6.808;2023-08-31T16:13:04;22.80;93.80
4293;DHT22;2160;51.172;6.808;2023-08-31T16:15:31;22.80;95.00
4293;DHT22;2160;51.172;6.808;2023-08-31T16:17:58;22.70;94.60
4293;DHT22;2160;51.172;6.808;2023-08-31T16:20:25;22.40;94.60
4293;DHT22;2160;51.172;6.808;2023-08-31T16:22:52;22.20;95.70
4293;DHT22;2160;51.172;6.808;2023-08-31T16:25:19;22.40;97.10
4293;DHT22;2160;51.172;6.808;2023-08-31T16:27:47;22.40;96.40
4293;DHT22;2160;51.172;6.808;2023-08-31T16:30:14;22.20;97.40
4293;DHT22;2160;51.172;6.808;2023-08-31T16:32:42;22.20;97.10
4293;DHT22;2160;51.172;6.808;2023-08-31T16:37:37;22.50;96.90
4293;DHT22;2160;51.172;6.808;2023-08-31T16:40:08;22.90;97.50
4293;DHT22;2160;51.172;6.808;2023-08-31T16:42:36;22.90;96.70
4293;DHT22;2160;51.172;6.808;2023-08-31T16:45:06;22.90;96.00
4293;DHT22;2160;51.172;6.808;2023-08-31T16:47:33;22.80;96.00
4293;DHT22;2160;51.172;6.808;2023-08-31T16:50:00;22.90;96.70
4293;DHT22;2160;51.172;6.808;2023-08-31T16:52:29;23.10;97.40
4293;DHT22;2160;51.172;6.808;2023-08-31T16:54:57;23.20;97.10
4293;DHT22;2160;51.172;6.808;2023-08-31T16:57:24;23.40;97.60
4293;DHT22;2160;51.172;6.808;2023-08-31T16:59:51;23.70;98.00
4293;DHT22;2160;51.172;6.808;2023-08-31T17:02:19;23.80;97.50
4293;DHT22;2160;51.172;6.808;2023-08-31T17:04:46;23.80;96.30
4293;DHT22;2160;51.172;6.808;2023-08-31T17:07:13;23.70;95.70
4293;DHT22;2160;51.172;6.808;2023-08-31T17:09:41;23.50;95.30
4293;DHT22;2160;51.172;6.808;2023-08-31T17:12:08;23.40;96.10
4293;DHT22;2160;51.172;6.808;2023-08-31T17:14:35;23.30;96.00
4293;DHT22;2160;51.172;6.808;2023-08-31T17:17:02;23.20;97.20
4293;DHT22;2160;51.172;6.808;2023-08-31T17:19:30;23.20;97.90
4293;DHT22;2160;51.172;6.808;2023-08-31T17:21:59;23.30;99.60
4293;DHT22;2160;51.172;6.808;2023-08-31T17:24:25;23.30;99.80
4293;DHT22;2160;51.172;6.808;2023-08-31T17:26:52;23.20;99.20
4293;DHT22;2160;51.172;6.808;2023-08-31T17:29:19;23.00;99.10
4293;DHT22;2160;51.172;6.808;2023-08-31T17:31:46;23.10;99.90
4293;DHT22;2160;51.172;6.808;2023-08-31T17:34:13;23.10;99.90
4293;DHT22;2160;51.172;6.808;2023-08-31T17:36:46;23.10;99.90
4293;DHT22;2160;51.172;6.808;2023-08-31T17:39:13;23.00;99.90
4293;DHT22;2160;51.172;6.808;2023-08-31T17:41:40;22.90;99.90
4293;DHT22;2160;51.172;6.808;2023-08-31T17:44:07;22.70;99.90
4293;DHT22;2160;51.172;6.808;2023-08-31T17:46:34;22.60;99.90
4293;DHT22;2160;51.172;6.808;2023-08-31T17:49:01;22.60;99.90
4293;DHT22;2160;51.172;6.808;2023-08-31T17:51:28;22.50;99.90
4293;DHT22;2160;51.172;6.808;2023-08-31T17:53:56;22.40;99.90
4293;DHT22;2160;51.172;6.808;2023-08-31T17:56:25;22.50;99.90
4293;DHT22;2160;51.172;6.808;2023-08-31T17:58:53;22.50;99.90
4293;DHT22;2160;51.172;6.808;2023-08-31T18:01:20;22.30;99.90
4293;DHT22;2160;51.172;6.808;2023-08-31T18:03:47;22.30;99.90
4293;DHT22;2160;51.172;6.808;2023-08-31T18:06:14;22.30;99.90
4293;DHT22;2160;51.172;6.808;2023-08-31T18:08:41;22.30;99.90
4293;DHT22;2160;51.172;6.808;2023-08-31T18:11:13;22.20;99.90
4293;DHT22;2160;51.172;6.808;2023-08-31T18:13:40;22.10;99.90
4293;DHT22;2160;51.172;6.808;2023-08-31T18:16:07;22.00;99.90
4293;DHT22;2160;51.172;6.808;2023-08-31T18:18:36;21.90;99.90
4293;DHT22;2160;51.172;6.808;2023-08-31T18:21:03;21.80;99.90
4293;DHT22;2160;51.172;6.808;2023-08-31T18:23:30;21.70;99.90
4293;DHT22;2160;51.172;6.808;2023-08-31T18:25:57;21.60;99.90
4293;DHT22;2160;51.172;6.808;2023-08-31T18:28:25;21.50;99.90
4293;DHT22;2160;51.172;6.808;2023-08-31T18:30:53;21.40;99.90
4293;DHT22;2160;51.172;6.808;2023-08-31T18:33:22;21.30;99.90
4293;DHT22;2160;51.172;6.808;2023-08-31T18:35:49;21.30;99.90
4293;DHT22;2160;51.172;6.808;2023-08-31T18:38:17;21.20;99.90
4293;DHT22;2160;51.172;6.808;2023-08-31T18:40:45;21.10;99.90
4293;DHT22;2160;51.172;6.808;2023-08-31T18:43:11;21.00;99.90
4293;DHT22;2160;51.172;6.808;2023-08-31T18:45:43;21.00;99.90
4293;DHT22;2160;51.172;6.808;2023-08-31T18:48:11;21.00;99.90
4293;DHT22;2160;51.172;6.808;2023-08-31T18:50:38;20.90;99.90
4293;DHT22;2160;51.172;6.808;2023-08-31T18:53:06;20.90;99.90
4293;DHT22;2160;51.172;6.808;2023-08-31T18:55:33;20.90;99.90
4293;DHT22;2160;51.172;6.808;2023-08-31T18:58:01;20.90;99.90
4293;DHT22;2160;51.172;6.808;2023-08-31T19:00:28;20.90;99.90
4293;DHT22;2160;51.172;6.808;2023-08-31T19:02:56;20.90;99.90
4293;DHT22;2160;51.172;6.808;2023-08-31T19:05:23;20.90;99.90
4293;DHT22;2160;51.172;6.808;2023-08-31T19:07:51;20.90;99.90
4293;DHT22;2160;51.172;6.808;2023-08-31T19:10:18;20.80;99.90
4293;DHT22;2160;51.172;6.808;2023-08-31T19:12:47;20.80;99.90
4293;DHT22;2160;51.172;6.808;2023-08-31T19:15:14;20.80;99.90
4293;DHT22;2160;51.172;6.808;2023-08-31T19:17:42;20.50;99.90
4293;DHT22;2160;51.172;6.808;2023-08-31T19:20:13;20.40;99.90
4293;DHT22;2160;51.172;6.808;2023-08-31T19:22:45;20.40;99.90
4293;DHT22;2160;51.172;6.808;2023-08-31T19:25:12;20.40;99.90
4293;DHT22;2160;51.172;6.808;2023-08-31T19:27:44;20.20;99.90
4293;DHT22;2160;51.172;6.808;2023-08-31T19:30:11;20.10;99.90
4293;DHT22;2160;51.172;6.808;2023-08-31T19:32:38;20.10;99.90
4293;DHT22;2160;51.172;6.808;2023-08-31T19:35:06;20.00;99.90
4293;DHT22;2160;51.172;6.808;2023-08-31T19:37:36;19.80;99.90
4293;DHT22;2160;51.172;6.808;2023-08-31T19:40:04;19.20;99.90
4293;DHT22;2160;51.172;6.808;2023-08-31T19:42:33;19.20;99.90
4293;DHT22;2160;51.172;6.808;2023-08-31T19:45:00;19.20;99.90
4293;DHT22;2160;51.172;6.808;2023-08-31T19:47:27;19.10;99.90
4293;DHT22;2160;51.172;6.808;2023-08-31T19:49:54;19.10;99.90
4293;DHT22;2160;51.172;6.808;2023-08-31T19:52:21;18.90;99.90
4293;DHT22;2160;51.172;6.808;2023-08-31T19:54:51;19.00;99.90
4293;DHT22;2160;51.172;6.808;2023-08-31T19:57:19;19.10;99.90
4293;DHT22;2160;51.172;6.808;2023-08-31T19:59:46;18.90;99.90
4293;DHT22;2160;51.172;6.808;2023-08-31T20:02:13;18.90;99.90
4293;DHT22;2160;51.172;6.808;2023-08-31T20:04:41;19.00;99.90
4293;DHT22;2160;51.172;6.808;2023-08-31T20:07:08;19.10;99.90
4293;DHT22;2160;51.172;6.808;2023-08-31T20:09:36;19.10;99.90